sensor_id;sensor_type;location;lat;lon;timestamp;temperature;humidity
49503;DHT22;35409;48.776;9.204;2024-01-27T01:15:42;1.60;99.90
49503;DHT22;35409;48.776;9.204;2024-01-27T01:18:07;1.40;99.90
49503;DHT22;35409;48.776;9.204;2024-01-27T01:20:33;1.30;99.90
49503;DHT22;35409;48.776;9.204;2024-01-27T01:22:59;1.30;99.90
49503;DHT22;35409;48.776;9.204;2024-01-27T01:25:25;1.30;99.90
49503;DHT22;35409;48.776;9.204;2024-01-27T01:27:51;1.20;99.90
49503;DHT22;35409;48.776;9.204;2024-01-27T01:30:18;1.20;99.90
49503;DHT22;35409;48.776;9.204;2024-01-27T01:32:43;1.20;99.90
49503;DHT22;35409;48.776;9.204;2024-01-27T01:35:12;1.20;99.90
49503;DHT22;35409;48.776;9.204;2024-01-27T01:37:38;1.20;99.90
49503;DHT22;35409;48.776;9.204;2024-01-27T01:40:05;1.20;99.90
49503;DHT22;35409;48.776;9.204;2024-01-27T01:42:32;1.20;99.90
49503;DHT22;35409;48.776;9.204;2024-01-27T01:44:57;1.20;99.90
49503;DHT22;35409;48.776;9.204;2024-01-27T01:47:25;1.20;99.90
49503;DHT22;35409;48.776;9.204;2024-01-27T01:49:51;1.30;99.90
49503;DHT22;35409;48.776;9.204;2024-01-27T01:52:17;1.30;99.90
49503;DHT22;35409;48.776;9.204;2024-01-27T01:54:48;1.30;99.90
49503;DHT22;35409;48.776;9.204;2024-01-27T01:57:16;1.30;99.90
49503;DHT22;35409;48.776;9.204;2024-01-27T01:59:42;1.20;99.90
49503;DHT22;35409;48.776;9.204;2024-01-27T02:02:08;1.20;99.90
49503;DHT22;35409;48.776;9.204;2024-01-27T02:04:44;1.20;99.90
49503;DHT22;35409;48.776;9.204;2024-01-27T02:07:11;1.20;99.90
49503;DHT22;35409;48.776;9.204;2024-01-27T02:09:37;1.20;99.90
49503;DHT22;35409;48.776;9.204;2024-01-27T02:12:04;1.10;99.90
49503;DHT22;35409;48.776;9.204;2024-01-27T02:14:30;1.10;99.90
49503;DHT22;35409;48.776;9.204;2024-01-27T02:16:56;1.00;99.90
49503;DHT22;35409;48.776;9.204;2024-01-27T02:19:23;1.20;99.90
49503;DHT22;35409;48.776;9.204;2024-01-27T02:21:49;0.90;99.90
49503;DHT22;35409;48.776;9.204;2024-01-27T02:24:14;1.00;99.90
49503;DHT22;35409;48.776;9.204;2024-01-27T02:26:40;1.00;99.90
49503;DHT22;35409;48.776;9.204;2024-01-27T02:29:06;1.00;99.90
49503;DHT22;35409;48.776;9.204;2024-01-27T02:31:31;1.00;99.90
49503;DHT22;35409;48.776;9.204;2024-01-27T02:33:57;1.00;99.90
49503;DHT22;35409;48.776;9.204;2024-01-27T02:36:24;1.00;99.90
49503;DHT22;35409;48.776;9.204;2024-01-27T02:38:49;1.00;99.90
49503;DHT22;35409;48.776;9.204;2024-01-27T02:41:15;0.90;99.90
49503;DHT22;35409;48.776;9.204;2024-01-27T02:43:42;0.90;99.90
49503;DHT22;35409;48.776;9.204;2024-01-27T02:46:10;0.90;99.90
49503;DHT22;35409;48.776;9.204;2024-01-27T02:48:36;0.90;99.90
49503;DHT22;35409;48.776;9.204;2024-01-27T02:51:04;1.00;99.90
49503;DHT22;35409;48.776;9.204;2024-01-27T02:53:30;1.00;99.90
49503;DHT22;35409;48.776;9.204;2024-01-27T02:55:56;1.00;99.90
49503;DHT22;35409;48.776;9.204;2024-01-27T02:58:22;1.00;99.90
49503;DHT22;35409;48.776;9.204;2024-01-27T03:00:47;1.10;99.90
49503;DHT22;35409;48.776;9.204;2024-01-27T03:03:13;1.10;99.90
49503;DHT22;35409;48.776;9.204;2024-01-27T03:05:41;1.10;99.90
49503;DHT22;35409;48.776;9.204;2024-01-27T03:08:07;1.20;99.90
49503;DHT22;35409;48.776;9.204;2024-01-27T03:10:33;1.10;99.90
49503;DHT22;35409;48.776;9.204;2024-01-27T03:12:59;1.10;99.90
49503;DHT22;35409;48.776;9.204;2024-01-27T03:15:25;1.00;99.90
49503;DHT22;35409;48.776;9.204;2024-01-27T03:17:50;1.00;99.90
49503;DHT22;35409;48.776;9.204;2024-01-27T03:20:16;0.90;99.90
49503;DHT22;35409;48.776;9.204;2024-01-27T03:22:43;0.90;99.90
49503;DHT22;35409;48.776;9.204;2024-01-27T03:25:10;0.80;99.90
49503;DHT22;35409;48.776;9.204;2024-01-27T03:27:38;0.80;99.90
49503;DHT22;35409;48.776;9.204;2024-01-27T03:32:31;0.60;99.90
49503;DHT22;35409;48.776;9.204;2024-01-27T03:35:00;0.60;99.90
49503;DHT22;35409;48.776;9.204;2024-01-27T03:37:26;0.60;99.90
49503;DHT22;35409;48.776;9.204;2024-01-27T03:39:52;0.60;99.90
49503;DHT22;35409;48.776;9.204;2024-01-27T03:42:18;0.60;99.90
49503;DHT22;35409;48.776;9.204;2024-01-27T03:44:45;0.60;99.90
49503;DHT22;35409;48.776;9.204;2024-01-27T03:47:10;0.60;99.90
49503;DHT22;35409;48.776;9.204;2024-01-27T03:49:37;0.60;99.90
49503;DHT22;35409;48.776;9.204;2024-01-27T03:52:04;0.70;99.90
49503;DHT22;35409;48.776;9.204;2024-01-27T03:54:29;0.70;99.90
49503;DHT22;35409;48.776;9.204;2024-01-27T03:56:55;0.70;99.90
49503;DHT22;35409;48.776;9.204;2024-01-27T03:59:22;0.70;99.90
49503;DHT22;35409;48.776;9.204;2024-01-27T04:01:48;0.70;99.90
49503;DHT22;35409;48.776;9.204;2024-01-27T04:04:13;0.60;99.90
49503;DHT22;35409;48.776;9.204;2024-01-27T04:06:41;0.60;99.90
49503;DHT22;35409;48.776;9.204;2024-01-27T04:09:07;0.60;99.90
49503;DHT22;35409;48.776;9.204;2024-01-27T04:11:34;0.60;99.90
49503;DHT22;35409;48.776;9.204;2024-01-27T04:14:00;0.60;99.90
49503;DHT22;35409;48.776;9.204;2024-01-27T04:16:27;0.60;99.90
49503;DHT22;35409;48.776;9.204;2024-01-27T04:18:53;0.60;99.90
49503;DHT22;35409;48.776;9.204;2024-01-27T04:21:19;0.50;99.90
49503;DHT22;35409;48.776;9.204;2024-01-27T04:23:46;0.50;99.90
49503;DHT22;35409;48.776;9.204;2024-01-27T04:26:12;0.50;99.90
49503;DHT22;35409;48.776;9.204;2024-01-27T04:28:37;0.40;99.90
49503;DHT22;35409;48.776;9.204;2024-01-27T04:31:03;0.40;99.90
49503;DHT22;35409;48.776;9.204;2024-01-27T04:33:29;0.30;99.90
49503;DHT22;35409;48.776;9.204;2024-01-27T04:35:55;0.30;99.90
49503;DHT22;35409;48.776;9.204;2024-01-27T04:38:20;0.20;99.90
49503;DHT22;35409;48.776;9.204;2024-01-27T04:40:46;0.20;99.90
49503;DHT22;35409;48.776;9.204;2024-01-27T04:43:18;0.10;99.90
49503;DHT22;35409;48.776;9.204;2024-01-27T04:48:15;0.00;99.90
49503;DHT22;35409;48.776;9.204;2024-01-27T04:50:41;0.00;99.90
49503;DHT22;35409;48.776;9.204;2024-01-27T04:53:07;0.00;99.90
49503;DHT22;35409;48.776;9.204;2024-01-27T04:55:33;0.00;99.90
49503;DHT22;35409;48.776;9.204;2024-01-27T04:57:58;0.00;99.90
49503;DHT22;35409;48.776;9.204;2024-01-27T05:00:25;-0.10;99.90
49503;DHT22;35409;48.776;9.204;2024-01-27T05:02:52;-0.10;99.90
49503;DHT22;35409;48.776;9.204;2024-01-27T05:05:18;-0.20;99.90
49503;DHT22;35409;48.776;9.204;2024-01-27T05:07:44;-0.20;99.90
49503;DHT22;35409;48.776;9.204;2024-01-27T05:10:14;-0.30;99.90
49503;DHT22;35409;48.776;9.204;2024-01-27T05:12:41;-0.40;99.90
49503;DHT22;35409;48.776;9.204;2024-01-27T09:32:19;2.40;99.90
49503;DHT22;35409;48.776;9.204;2024-01-27T09:34:47;2.40;99.90
49503;DHT22;35409;48.776;9.204;2024-01-27T09:37:13;2.50;99.90
49503;DHT22;35409;48.776;9.204;2024-01-27T09:39:38;2.50;99.90
49503;DHT22;35409;48.776;9.204;2024-01-27T09:42:06;2.60;99.90
49503;DHT22;35409;48.776;9.204;2024-01-27T09:44:33;2.70;99.90
49503;DHT22;35409;48.776;9.204;2024-01-27T09:47:00;2.80;99.90
49503;DHT22;35409;48.776;9.204;2024-01-27T09:49:26;2.90;99.90
49503;DHT22;35409;48.776;9.204;2024-01-27T09:51:52;3.00;99.90
49503;DHT22;35409;48.776;9.204;2024-01-27T09:54:18;3.20;99.90
49503;DHT22;35409;48.776;9.204;2024-01-27T09:56:46;3.20;99.90
49503;DHT22;35409;48.776;9.204;2024-01-27T09:59:12;3.30;99.90
49503;DHT22;35409;48.776;9.204;2024-01-27T10:01:40;3.30;99.90
49503;DHT22;35409;48.776;9.204;2024-01-27T10:04:08;3.40;99.90
49503;DHT22;35409;48.776;9.204;2024-01-27T10:06:34;3.50;99.90
49503;DHT22;35409;48.776;9.204;2024-01-27T10:09:00;3.50;99.90
49503;DHT22;35409;48.776;9.204;2024-01-27T10:11:27;3.60;99.90
49503;DHT22;35409;48.776;9.204;2024-01-27T10:13:57;3.70;99.90
49503;DHT22;35409;48.776;9.204;2024-01-27T10:16:25;3.70;99.90
49503;DHT22;35409;48.776;9.204;2024-01-27T10:19:01;3.80;99.90
49503;DHT22;35409;48.776;9.204;2024-01-27T10:21:27;4.00;99.90
49503;DHT22;35409;48.776;9.204;2024-01-27T10:23:53;4.10;99.90
49503;DHT22;35409;48.776;9.204;2024-01-27T10:26:19;4.10;99.90
49503;DHT22;35409;48.776;9.204;2024-01-27T10:28:57;4.20;99.90
49503;DHT22;35409;48.776;9.204;2024-01-27T10:31:30;4.30;99.90
49503;DHT22;35409;48.776;9.204;2024-01-27T11:33:13;6.00;99.90
49503;DHT22;35409;48.776;9.204;2024-01-27T11:35:39;6.10;99.90
49503;DHT22;35409;48.776;9.204;2024-01-27T11:38:05;6.00;99.90
49503;DHT22;35409;48.776;9.204;2024-01-27T11:40:31;6.10;99.90
49503;DHT22;35409;48.776;9.204;2024-01-27T11:42:58;6.10;99.90
49503;DHT22;35409;48.776;9.204;2024-01-27T11:45:24;6.10;99.90
49503;DHT22;35409;48.776;9.204;2024-01-27T11:47:50;6.10;99.90
49503;DHT22;35409;48.776;9.204;2024-01-27T11:50:19;6.10;99.90
49503;DHT22;35409;48.776;9.204;2024-01-27T11:52:46;6.10;99.90
49503;DHT22;35409;48.776;9.204;2024-01-27T11:55:12;6.10;99.90
49503;DHT22;35409;48.776;9.204;2024-01-27T11:57:42;6.20;99.90
49503;DHT22;35409;48.776;9.204;2024-01-27T12:00:08;6.20;99.90
49503;DHT22;35409;48.776;9.204;2024-01-27T12:02:38;6.30;99.90
49503;DHT22;35409;48.776;9.204;2024-01-27T12:05:05;6.40;99.90
49503;DHT22;35409;48.776;9.204;2024-01-27T12:07:31;6.40;99.90
49503;DHT22;35409;48.776;9.204;2024-01-27T12:09:56;6.40;99.90
49503;DHT22;35409;48.776;9.204;2024-01-27T12:12:22;6.40;99.90
49503;DHT22;35409;48.776;9.204;2024-01-27T12:14:49;6.40;99.90
49503;DHT22;35409;48.776;9.204;2024-01-27T12:17:16;6.50;99.90
49503;DHT22;35409;48.776;9.204;2024-01-27T12:19:52;6.50;99.90
49503;DHT22;35409;48.776;9.204;2024-01-27T12:22:22;6.50;99.90
49503;DHT22;35409;48.776;9.204;2024-01-27T12:24:48;6.50;99.90
49503;DHT22;35409;48.776;9.204;2024-01-27T12:27:15;6.60;99.90
49503;DHT22;35409;48.776;9.204;2024-01-27T12:29:41;6.60;99.90
49503;DHT22;35409;48.776;9.204;2024-01-27T12:32:07;6.60;99.90
49503;DHT22;35409;48.776;9.204;2024-01-27T12:34:33;6.60;99.90
49503;DHT22;35409;48.776;9.204;2024-01-27T12:37:07;6.70;99.90
49503;DHT22;35409;48.776;9.204;2024-01-27T12:39:33;6.80;99.90
49503;DHT22;35409;48.776;9.204;2024-01-27T12:41:59;6.80;99.90
49503;DHT22;35409;48.776;9.204;2024-01-27T12:44:25;6.80;99.90
49503;DHT22;35409;48.776;9.204;2024-01-27T12:46:50;6.80;99.90
49503;DHT22;35409;48.776;9.204;2024-01-27T12:49:16;6.90;99.90
49503;DHT22;35409;48.776;9.204;2024-01-27T12:51:43;6.90;99.90
49503;DHT22;35409;48.776;9.204;2024-01-27T12:54:11;6.90;99.90
49503;DHT22;35409;48.776;9.204;2024-01-27T12:56:37;6.90;99.90
49503;DHT22;35409;48.776;9.204;2024-01-27T12:59:03;6.90;99.90
49503;DHT22;35409;48.776;9.204;2024-01-27T13:01:31;6.90;99.90
49503;DHT22;35409;48.776;9.204;2024-01-27T13:03:57;6.90;99.90
49503;DHT22;35409;48.776;9.204;2024-01-27T13:06:22;6.90;99.90
49503;DHT22;35409;48.776;9.204;2024-01-27T13:08:48;6.90;99.90
49503;DHT22;35409;48.776;9.204;2024-01-27T13:11:14;6.90;99.90
49503;DHT22;35409;48.776;9.204;2024-01-27T13:13:40;6.90;99.90
49503;DHT22;35409;48.776;9.204;2024-01-27T13:16:07;7.00;99.90
49503;DHT22;35409;48.776;9.204;2024-01-27T13:18:32;7.00;99.90
49503;DHT22;35409;48.776;9.204;2024-01-27T18:58:25;1.40;99.90
49503;DHT22;35409;48.776;9.204;2024-01-27T19:00:52;1.20;99.90
49503;DHT22;35409;48.776;9.204;2024-01-27T19:03:17;1.10;99.90
49503;DHT22;35409;48.776;9.204;2024-01-27T19:05:43;1.10;99.90
49503;DHT22;35409;48.776;9.204;2024-01-27T19:08:09;1.00;99.90
49503;DHT22;35409;48.776;9.204;2024-01-27T19:10:35;1.00;99.90
49503;DHT22;35409;48.776;9.204;2024-01-27T19:13:01;1.00;99.90
49503;DHT22;35409;48.776;9.204;2024-01-27T19:15:27;1.00;99.90
49503;DHT22;35409;48.776;9.204;2024-01-27T19:17:53;1.00;99.90
49503;DHT22;35409;48.776;9.204;2024-01-27T19:20:19;1.00;99.90
49503;DHT22;35409;48.776;9.204;2024-01-27T19:22:46;1.00;99.90
49503;DHT22;35409;48.776;9.204;2024-01-27T19:25:13;1.00;99.90
49503;DHT22;35409;48.776;9.204;2024-01-27T19:27:39;1.10;99.90
49503;DHT22;35409;48.776;9.204;2024-01-27T19:30:05;1.10;99.90
49503;DHT22;35409;48.776;9.204;2024-01-27T19:32:32;1.20;99.90
49503;DHT22;35409;48.776;9.204;2024-01-27T19:34:57;1.30;99.90
49503;DHT22;35409;48.776;9.204;2024-01-27T19:37:23;1.40;99.90
49503;DHT22;35409;48.776;9.204;2024-01-27T19:39:49;1.40;99.90
49503;DHT22;35409;48.776;9.204;2024-01-27T19:42:14;1.50;99.90
49503;DHT22;35409;48.776;9.204;2024-01-27T19:44:40;1.50;99.90
49503;DHT22;35409;48.776;9.204;2024-01-27T19:47:06;1.50;99.90
49503;DHT22;35409;48.776;9.204;2024-01-27T19:49:36;1.40;99.90
49503;DHT22;35409;48.776;9.204;2024-01-27T19:52:07;1.30;99.90
49503;DHT22;35409;48.776;9.204;2024-01-27T19:54:33;1.10;99.90
49503;DHT22;35409;48.776;9.204;2024-01-27T19:56:59;1.00;99.90
49503;DHT22;35409;48.776;9.204;2024-01-27T19:59:25;0.80;99.90
49503;DHT22;35409;48.776;9.204;2024-01-27T20:01:51;0.70;99.90
49503;DHT22;35409;48.776;9.204;2024-01-27T20:04:16;0.60;99.90
49503;DHT22;35409;48.776;9.204;2024-01-27T20:06:42;0.60;99.90
49503;DHT22;35409;48.776;9.204;2024-01-27T20:09:08;0.50;99.90
49503;DHT22;35409;48.776;9.204;2024-01-27T20:11:34;0.40;99.90
49503;DHT22;35409;48.776;9.204;2024-01-27T20:14:00;0.30;99.90
49503;DHT22;35409;48.776;9.204;2024-01-27T20:16:26;0.30;99.90
49503;DHT22;35409;48.776;9.204;2024-01-27T20:18:52;0.20;99.90
49503;DHT22;35409;48.776;9.204;2024-01-27T20:21:21;0.20;99.90
49503;DHT22;35409;48.776;9.204;2024-01-27T20:23:47;0.10;99.90
49503;DHT22;35409;48.776;9.204;2024-01-27T20:26:13;0.10;99.90
49503;DHT22;35409;48.776;9.204;2024-01-27T20:28:38;0.00;99.90
49503;DHT22;35409;48.776;9.204;2024-01-27T20:31:04;0.00;99.90
49503;DHT22;35409;48.776;9.204;2024-01-27T20:33:30;-0.10;99.90
49503;DHT22;35409;48.776;9.204;2024-01-27T20:35:56;-0.10;99.90
49503;DHT22;35409;48.776;9.204;2024-01-27T20:38:21;-0.10;99.90
49503;DHT22;35409;48.776;9.204;2024-01-27T20:40:48;-0.20;99.90
49503;DHT22;35409;48.776;9.204;2024-01-27T20:43:16;-0.30;99.90
49503;DHT22;35409;48.776;9.204;2024-01-27T20:45:43;-0.30;99.90
49503;DHT22;35409;48.776;9.204;2024-01-27T20:48:09;-0.30;99.90
49503;DHT22;35409;48.776;9.204;2024-01-27T20:50:40;-0.40;99.90
49503;DHT22;35409;48.776;9.204;2024-01-27T20:53:05;-0.40;99.90
49503;DHT22;35409;48.776;9.204;2024-01-27T20:55:31;-0.40;99.90
49503;DHT22;35409;48.776;9.204;2024-01-27T20:57:57;-0.40;99.90
49503;DHT22;35409;48.776;9.204;2024-01-27T21:00:23;-0.30;99.90
49503;DHT22;35409;48.776;9.204;2024-01-27T21:02:50;-0.10;99.90
49503;DHT22;35409;48.776;9.204;2024-01-27T21:05:16;0.10;99.90
49503;DHT22;35409;48.776;9.204;2024-01-27T21:07:43;0.20;99.90
49503;DHT22;35409;48.776;9.204;2024-01-27T21:10:09;0.30;99.90
49503;DHT22;35409;48.776;9.204;2024-01-27T21:12:34;0.30;99.90
49503;DHT22;35409;48.776;9.204;2024-01-27T21:15:00;0.40;99.90
49503;DHT22;35409;48.776;9.204;2024-01-27T21:17:26;0.40;99.90
49503;DHT22;35409;48.776;9.204;2024-01-27T21:19:51;0.40;99.90
49503;DHT22;35409;48.776;9.204;2024-01-27T21:22:19;0.40;99.90
49503;DHT22;35409;48.776;9.204;2024-01-27T21:24:45;0.40;99.90
49503;DHT22;35409;48.776;9.204;2024-01-27T21:27:11;0.30;99.90
49503;DHT22;35409;48.776;9.204;2024-01-27T21:29:36;0.30;99.90
49503;DHT22;35409;48.776;9.204;2024-01-27T21:32:02;0.20;99.90
49503;DHT22;35409;48.776;9.204;2024-01-27T21:34:29;0.20;99.90
49503;DHT22;35409;48.776;9.204;2024-01-27T21:36:55;0.20;99.90
49503;DHT22;35409;48.776;9.204;2024-01-27T21:39:21;0.20;99.90
49503;DHT22;35409;48.776;9.204;2024-01-27T21:41:50;0.20;99.90
49503;DHT22;35409;48.776;9.204;2024-01-27T21:44:15;0.10;99.90
49503;DHT22;35409;48.776;9.204;2024-01-27T21:46:41;0.10;99.90
49503;DHT22;35409;48.776;9.204;2024-01-27T21:49:06;0.10;99.90
49503;DHT22;35409;48.776;9.204;2024-01-27T21:51:32;0.10;99.90
49503;DHT22;35409;48.776;9.204;2024-01-27T21:53:59;0.00;99.90
49503;DHT22;35409;48.776;9.204;2024-01-27T21:56:25;0.00;99.90
49503;DHT22;35409;48.776;9.204;2024-01-27T21:58:51;0.10;99.90
49503;DHT22;35409;48.776;9.204;2024-01-27T22:01:17;0.00;99.90
49503;DHT22;35409;48.776;9.204;2024-01-27T22:03:43;0.00;99.90
49503;DHT22;35409;48.776;9.204;2024-01-27T22:06:11;0.00;99.90
49503;DHT22;35409;48.776;9.204;2024-01-27T22:08:37;0.00;99.90
49503;DHT22;35409;48.776;9.204;2024-01-27T22:11:03;0.00;99.90
49503;DHT22;35409;48.776;9.204;2024-01-27T22:13:29;0.00;99.90
49503;DHT22;35409;48.776;9.204;2024-01-27T22:15:55;0.00;99.90
49503;DHT22;35409;48.776;9.204;2024-01-27T22:18:21;0.00;99.90
49503;DHT22;35409;48.776;9.204;2024-01-27T22:20:48;0.00;99.90
49503;DHT22;35409;48.776;9.204;2024-01-27T22:23:13;0.00;99.90
49503;DHT22;35409;48.776;9.204;2024-01-27T22:25:39;0.00;99.90
49503;DHT22;35409;48.776;9.204;2024-01-27T22:28:05;0.00;99.90
49503;DHT22;35409;48.776;9.204;2024-01-27T22:30:31;0.00;99.90
49503;DHT22;35409;48.776;9.204;2024-01-27T22:32:57;0.10;99.90
49503;DHT22;35409;48.776;9.204;2024-01-27T22:35:26;0.10;99.90
49503;DHT22;35409;48.776;9.204;2024-01-27T22:37:51;0.00;99.90
49503;DHT22;35409;48.776;9.204;2024-01-27T22:40:17;0.00;99.90
49503;DHT22;35409;48.776;9.204;2024-01-27T22:42:43;0.00;99.90
49503;DHT22;35409;48.776;9.204;2024-01-27T22:45:09;0.00;99.90
49503;DHT22;35409;48.776;9.204;2024-01-27T22:47:36;-0.10;99.90
49503;DHT22;35409;48.776;9.204;2024-01-27T22:50:04;-0.10;99.90
49503;DHT22;35409;48.776;9.204;2024-01-27T22:52:30;-0.20;99.90
49503;DHT22;35409;48.776;9.204;2024-01-27T22:54:55;-0.20;99.90
49503;DHT22;35409;48.776;9.204;2024-01-27T22:57:22;-0.20;99.90
49503;DHT22;35409;48.776;9.204;2024-01-27T22:59:48;-0.20;99.90
49503;DHT22;35409;48.776;9.204;2024-01-27T23:02:13;-0.30;99.90
49503;DHT22;35409;48.776;9.204;2024-01-27T23:04:39;-0.40;99.90
49503;DHT22;35409;48.776;9.204;2024-01-27T23:07:08;-0.40;99.90
49503;DHT22;35409;48.776;9.204;2024-01-27T23:09:34;-0.50;99.90
49503;DHT22;35409;48.776;9.204;2024-01-27T23:12:00;-0.50;99.90
49503;DHT22;35409;48.776;9.204;2024-01-27T23:14:26;-0.60;99.90
49503;DHT22;35409;48.776;9.204;2024-01-27T23:16:51;-0.60;99.90
49503;DHT22;35409;48.776;9.204;2024-01-27T23:19:17;-0.50;99.90
49503;DHT22;35409;48.776;9.204;2024-01-27T23:21:43;-0.50;99.90
49503;DHT22;35409;48.776;9.204;2024-01-27T23:24:09;-0.50;99.90
49503;DHT22;35409;48.776;9.204;2024-01-27T23:26:35;-0.50;99.90
49503;DHT22;35409;48.776;9.204;2024-01-27T23:29:01;-0.50;99.90
49503;DHT22;35409;48.776;9.204;2024-01-27T23:31:28;-0.50;99.90
49503;DHT22;35409;48.776;9.204;2024-01-27T23:33:54;-0.50;99.90
49503;DHT22;35409;48.776;9.204;2024-01-27T23:36:19;-0.50;99.90
49503;DHT22;35409;48.776;9.204;2024-01-27T23:38:45;-0.40;99.90
49503;DHT22;35409;48.776;9.204;2024-01-27T23:41:11;-0.40;99.90
49503;DHT22;35409;48.776;9.204;2024-01-27T23:43:37;-0.50;99.90
49503;DHT22;35409;48.776;9.204;2024-01-27T23:46:03;-0.40;99.90
49503;DHT22;35409;48.776;9.204;2024-01-27T23:48:29;-0.40;99.90
49503;DHT22;35409;48.776;9.204;2024-01-27T23:50:54;-0.40;99.90
49503;DHT22;35409;48.776;9.204;2024-01-27T23:53:21;-0.40;99.90
49503;DHT22;35409;48.776;9.204;2024-01-27T23:55:48;-0.40;99.90
49503;DHT22;35409;48.776;9.204;2024-01-27T23:58:17;-0.40;99.90
